createdAt,value
2023-09-12T00:02:18.487Z,16.39
2023-09-12T00:05:04.043Z,16.42
2023-09-12T00:07:53.526Z,16.40
2023-09-12T00:10:39.002Z,16.35
2023-09-12T00:13:24.459Z,16.33
2023-09-12T00:16:09.992Z,16.25
2023-09-12T00:18:55.196Z,16.39
2023-09-12T00:21:40.522Z,16.24
2023-09-12T00:24:25.939Z,16.13
2023-09-12T00:27:11.687Z,16.04
2023-09-12T00:29:57.672Z,16.10
2023-09-12T00:32:43.241Z,15.95
2023-09-12T00:35:28.314Z,15.99
2023-09-12T00:38:13.799Z,15.75
2023-09-12T00:40:59.417Z,16.01
2023-09-12T00:43:44.879Z,15.97
2023-09-12T00:46:30.799Z,15.85
2023-09-12T00:49:18.294Z,15.97
2023-09-12T00:52:04.116Z,15.96
2023-09-12T00:54:49.599Z,15.50
2023-09-12T00:57:35.865Z,15.05
2023-09-12T01:00:21.660Z,14.93
2023-09-12T01:03:07.761Z,14.95
2023-09-12T01:05:53.516Z,15.11
2023-09-12T01:08:38.790Z,15.21
2023-09-12T01:11:25.058Z,15.31
2023-09-12T01:14:10.481Z,15.08
2023-09-12T01:16:56.976Z,15.33
2023-09-12T01:19:43.049Z,15.45
2023-09-12T01:23:06.037Z,15.47
2023-09-12T01:26:00.751Z,15.42
2023-09-12T01:28:46.521Z,15.34
2023-09-12T01:31:33.004Z,15.45
2023-09-12T01:34:18.891Z,15.38
2023-09-12T01:37:04.425Z,15.35
2023-09-12T01:39:49.923Z,15.36
2023-09-12T01:42:41.733Z,15.14
2023-09-12T01:45:28.215Z,15.34
2023-09-12T01:48:15.116Z,15.36
2023-09-12T01:51:03.105Z,15.38
2023-09-12T01:53:50.700Z,15.29
2023-09-12T01:56:36.683Z,15.33
2023-09-12T01:59:22.073Z,15.21
2023-09-12T02:02:07.313Z,15.36
2023-09-12T02:05:16.038Z,15.36
2023-09-12T02:08:01.477Z,15.32
2023-09-12T02:10:47.218Z,15.26
2023-09-12T02:13:32.765Z,15.01
2023-09-12T02:16:18.284Z,15.28
2023-09-12T02:19:03.894Z,15.27
2023-09-12T02:21:49.203Z,15.21
2023-09-12T02:24:37.829Z,15.20
2023-09-12T02:27:23.222Z,15.20
2023-09-12T02:30:09.062Z,15.18
2023-09-12T02:32:54.287Z,15.13
2023-09-12T02:35:39.996Z,14.73
2023-09-12T02:38:25.599Z,14.94
2023-09-12T02:41:11.182Z,14.59
2023-09-12T02:43:56.594Z,14.74
2023-09-12T02:46:42.097Z,14.79
2023-09-12T02:49:27.657Z,14.71
2023-09-12T02:52:13.048Z,14.82
2023-09-12T02:54:58.611Z,14.85
2023-09-12T02:57:44.046Z,14.81
2023-09-12T03:00:29.490Z,14.74
2023-09-12T03:03:15.342Z,14.69
2023-09-12T03:06:02.152Z,14.72
2023-09-12T03:12:59.923Z,14.57
2023-09-12T03:16:00.242Z,14.39
2023-09-12T03:18:46.277Z,13.94
2023-09-12T03:21:31.913Z,13.71
2023-09-12T03:24:17.319Z,13.95
2023-09-12T03:27:03.138Z,14.11
2023-09-12T03:29:49.068Z,14.21
2023-09-12T03:32:34.257Z,14.30
2023-09-12T03:35:19.846Z,14.19
2023-09-12T03:38:05.305Z,14.20
2023-09-12T03:40:50.857Z,14.21
2023-09-12T03:43:36.288Z,14.16
2023-09-12T03:46:22.955Z,14.04
2023-09-12T03:49:08.129Z,14.15
2023-09-12T03:51:53.747Z,14.20
2023-09-12T03:54:39.460Z,14.23
2023-09-12T03:57:24.637Z,14.22
2023-09-12T04:00:10.603Z,14.20
2023-09-12T04:03:07.304Z,14.21
2023-09-12T04:05:52.751Z,14.22
2023-09-12T04:08:38.280Z,14.24
2023-09-12T04:11:35.369Z,14.24
2023-09-12T04:14:29.511Z,14.19
2023-09-12T04:17:14.974Z,14.14
2023-09-12T04:20:00.586Z,13.65
2023-09-12T04:22:45.867Z,14.06
2023-09-12T04:25:32.062Z,14.16
2023-09-12T04:28:17.338Z,13.96
2023-09-12T04:31:03.963Z,13.71
2023-09-12T04:33:54.936Z,14.03
2023-09-12T04:36:40.270Z,14.10
2023-09-12T04:39:25.949Z,14.04
2023-09-12T04:42:11.864Z,14.05
2023-09-12T04:44:57.169Z,14.04
2023-09-12T04:47:42.421Z,14.06
2023-09-12T04:50:27.783Z,14.06
2023-09-12T04:53:13.512Z,14.05
2023-09-12T04:55:58.853Z,14.05
2023-09-12T04:58:44.852Z,14.05
2023-09-12T05:01:30.108Z,14.06
2023-09-12T05:04:15.796Z,14.13
2023-09-12T05:07:01.300Z,13.60
2023-09-12T05:09:47.541Z,13.51
2023-09-12T05:12:32.979Z,13.57
2023-09-12T05:15:18.592Z,13.65
2023-09-12T05:18:04.466Z,13.70
2023-09-12T05:20:50.390Z,13.59
2023-09-12T05:23:35.904Z,13.61
2023-09-12T05:26:21.719Z,13.90
2023-09-12T05:29:07.223Z,14.01
2023-09-12T05:31:53.029Z,14.07
2023-09-12T05:34:38.513Z,14.14
2023-09-12T05:37:24.132Z,14.23
2023-09-12T05:40:10.031Z,14.23
2023-09-12T05:42:55.695Z,14.25
2023-09-12T05:45:41.189Z,14.48
2023-09-12T05:48:26.685Z,14.51
2023-09-12T05:51:12.026Z,14.24
2023-09-12T05:53:57.785Z,14.27
2023-09-12T05:56:43.344Z,14.48
2023-09-12T05:59:28.698Z,14.83
2023-09-12T06:02:14.161Z,15.24
2023-09-12T06:04:59.807Z,15.32
2023-09-12T06:07:45.364Z,15.29
2023-09-12T06:10:30.686Z,15.33
2023-09-12T06:13:16.141Z,15.13
2023-09-12T06:16:01.643Z,15.21
2023-09-12T06:18:47.248Z,15.23
2023-09-12T06:21:32.491Z,15.10
2023-09-12T06:24:21.437Z,15.57
2023-09-12T06:27:06.881Z,15.27
2023-09-12T06:29:52.402Z,15.18
2023-09-12T06:32:38.033Z,15.42
2023-09-12T06:35:23.531Z,15.50
2023-09-12T06:38:09.237Z,15.85
2023-09-12T06:40:54.680Z,15.83
2023-09-12T06:43:40.322Z,16.23
2023-09-12T06:46:25.983Z,16.10
2023-09-12T06:49:11.714Z,16.11
2023-09-12T06:51:56.946Z,16.29
2023-09-12T06:54:42.920Z,16.49
2023-09-12T06:57:28.233Z,16.65
2023-09-12T07:00:14.680Z,16.70
2023-09-12T07:03:00.366Z,16.54
2023-09-12T07:05:45.587Z,16.55
2023-09-12T07:08:32.009Z,16.43
2023-09-12T07:11:17.409Z,16.58
2023-09-12T07:14:02.959Z,16.74
2023-09-12T07:16:48.640Z,16.89
2023-09-12T07:19:34.301Z,16.91
2023-09-12T07:22:19.642Z,17.16
2023-09-12T07:25:05.731Z,17.14
2023-09-12T07:27:53.842Z,17.11
2023-09-12T07:30:39.085Z,16.97
2023-09-12T07:33:24.528Z,17.00
2023-09-12T07:36:09.774Z,17.04
2023-09-12T07:38:55.571Z,16.94
2023-09-12T07:41:40.831Z,17.00
2023-09-12T07:44:26.215Z,17.17
2023-09-12T07:47:11.579Z,17.49
2023-09-12T07:49:57.551Z,17.73
2023-09-12T07:52:42.751Z,17.93
2023-09-12T07:55:28.381Z,18.27
2023-09-12T07:58:15.401Z,18.19
2023-09-12T08:03:51.191Z,18.84
2023-09-12T08:06:51.442Z,18.95
2023-09-12T08:09:50.174Z,19.22
2023-09-12T08:12:37.418Z,19.21
2023-09-12T08:15:22.739Z,19.24
2023-09-12T08:18:08.330Z,19.35
2023-09-12T08:20:53.541Z,19.60
2023-09-12T08:23:38.744Z,19.68
2023-09-12T08:26:24.204Z,19.83
2023-09-12T08:29:09.743Z,19.97
2023-09-12T08:31:55.314Z,19.86
2023-09-12T08:34:40.792Z,20.12
2023-09-12T08:37:25.734Z,20.26
2023-09-12T08:40:12.453Z,20.20
2023-09-12T08:42:58.988Z,20.44
2023-09-12T08:45:45.293Z,20.60
2023-09-12T08:48:31.461Z,20.56
2023-09-12T08:51:16.855Z,20.82
2023-09-12T08:54:03.729Z,20.81
2023-09-12T08:56:50.309Z,20.65
2023-09-12T08:59:36.190Z,20.45
2023-09-12T09:02:22.571Z,20.62
2023-09-12T09:05:09.452Z,20.67
2023-09-12T09:07:56.052Z,20.96
2023-09-12T09:10:55.772Z,20.95
2023-09-12T09:13:41.174Z,20.80
2023-09-12T09:16:26.473Z,20.62
2023-09-12T09:19:12.084Z,21.01
2023-09-12T09:22:06.606Z,21.28
2023-09-12T09:25:10.875Z,21.38
2023-09-12T09:27:56.188Z,21.40
2023-09-12T09:30:43.685Z,21.67
2023-09-12T09:33:35.896Z,21.69
2023-09-12T09:36:21.771Z,21.89
2023-09-12T09:39:07.248Z,21.68
2023-09-12T09:41:54.604Z,21.98
2023-09-12T09:44:40.177Z,21.84
2023-09-12T09:47:25.324Z,22.13
2023-09-12T09:50:15.136Z,22.25
2023-09-12T09:53:00.227Z,21.81
2023-09-12T09:55:45.792Z,21.59
2023-09-12T09:58:31.658Z,21.73
2023-09-12T10:01:22.526Z,22.19
2023-09-12T10:04:09.776Z,22.37
2023-09-12T10:07:06.540Z,22.03
2023-09-12T10:09:54.922Z,22.27
2023-09-12T10:12:50.498Z,22.16
2023-09-12T10:15:39.327Z,21.97
2023-09-12T10:18:37.878Z,22.44
2023-09-12T10:21:32.788Z,22.71
2023-09-12T10:24:21.604Z,22.74
2023-09-12T10:27:07.355Z,23.04
2023-09-12T10:29:55.504Z,23.54
2023-09-12T10:32:50.986Z,23.38
2023-09-12T10:35:39.775Z,23.08
2023-09-12T10:38:30.900Z,23.26
2023-09-12T10:41:26.293Z,23.19
2023-09-12T10:44:21.656Z,23.53
2023-09-12T10:47:09.346Z,23.47
2023-09-12T10:49:55.557Z,24.01
2023-09-12T10:52:48.778Z,24.32
2023-09-12T10:55:36.304Z,24.24
2023-09-12T10:58:22.423Z,24.17
2023-09-12T11:01:27.570Z,23.93
2023-09-12T11:04:20.186Z,24.19
2023-09-12T11:07:37.546Z,23.88
2023-09-12T11:10:23.812Z,23.79
2023-09-12T11:13:18.862Z,23.96
2023-09-12T11:16:12.114Z,24.02
2023-09-12T11:19:21.330Z,24.05
2023-09-12T11:22:28.618Z,23.98
2023-09-12T11:25:24.257Z,24.25
2023-09-12T11:28:09.844Z,24.21
2023-09-12T11:30:58.960Z,24.07
2023-09-12T11:33:44.953Z,24.17
2023-09-12T11:36:30.664Z,24.24
2023-09-12T11:39:26.832Z,24.20
2023-09-12T11:42:12.691Z,23.53
2023-09-12T11:44:59.550Z,23.91
2023-09-12T11:47:46.468Z,24.37
2023-09-12T11:50:33.785Z,24.48
2023-09-12T11:53:21.906Z,24.81
2023-09-12T11:56:07.772Z,24.79
2023-09-12T11:58:54.762Z,24.63
2023-09-12T12:01:40.465Z,24.69
2023-09-12T12:04:26.706Z,24.77
2023-09-12T12:07:12.576Z,24.85
2023-09-12T12:09:58.130Z,24.88
2023-09-12T12:12:45.591Z,24.70
2023-09-12T12:15:31.177Z,24.70
2023-09-12T12:18:17.349Z,24.83
2023-09-12T12:21:03.064Z,24.87
2023-09-12T12:23:58.620Z,24.68
2023-09-12T12:26:45.038Z,25.22
2023-09-12T12:29:31.440Z,24.93
2023-09-12T12:32:17.552Z,25.23
2023-09-12T12:35:10.669Z,25.11
2023-09-12T12:38:08.887Z,24.95
2023-09-12T12:40:54.555Z,24.84
2023-09-12T12:43:43.869Z,24.93
2023-09-12T12:46:29.389Z,24.98
2023-09-12T12:49:16.885Z,24.91
2023-09-12T12:52:03.946Z,24.78
2023-09-12T12:54:49.430Z,24.93
2023-09-12T12:57:40.251Z,24.51
2023-09-12T13:00:25.803Z,24.92
2023-09-12T13:03:10.890Z,24.98
2023-09-12T13:05:56.483Z,24.63
2023-09-12T13:08:43.080Z,24.50
2023-09-12T13:11:28.274Z,24.41
2023-09-12T13:14:13.681Z,24.83
2023-09-12T13:17:00.134Z,24.44
2023-09-12T13:19:45.637Z,24.62
2023-09-12T13:22:30.845Z,24.70
2023-09-12T13:25:16.336Z,24.75
2023-09-12T13:28:02.175Z,24.91
2023-09-12T13:30:47.743Z,24.35
2023-09-12T13:33:33.450Z,24.79
2023-09-12T13:36:18.978Z,24.74
2023-09-12T13:39:04.947Z,24.98
2023-09-12T13:41:50.424Z,24.84
2023-09-12T13:44:35.932Z,25.08
2023-09-12T13:47:21.576Z,25.16
2023-09-12T13:50:07.519Z,25.23
2023-09-12T13:52:55.457Z,25.38
2023-09-12T13:56:12.852Z,24.92
2023-09-12T13:58:48.116Z,24.76
2023-09-12T14:01:38.634Z,24.46
2023-09-12T14:04:23.845Z,24.93
2023-09-12T14:07:10.047Z,25.13
2023-09-12T14:09:55.708Z,25.22
2023-09-12T14:12:41.651Z,25.11
2023-09-12T14:15:26.898Z,25.09
2023-09-12T14:18:13.558Z,25.39
2023-09-12T14:20:59.267Z,25.51
2023-09-12T14:23:45.252Z,25.56
2023-09-12T14:26:30.819Z,25.66
2023-09-12T14:29:17.618Z,25.56
2023-09-12T14:32:03.085Z,25.73
2023-09-12T14:34:48.237Z,25.59
2023-09-12T14:37:33.931Z,25.47
2023-09-12T14:40:19.217Z,25.21
2023-09-12T14:43:04.905Z,25.35
2023-09-12T14:45:50.591Z,25.26
2023-09-12T14:48:36.044Z,24.81
2023-09-12T14:51:30.959Z,24.89
2023-09-12T14:54:19.191Z,24.88
2023-09-12T14:57:04.593Z,25.11
2023-09-12T14:59:50.901Z,25.31
2023-09-12T15:02:36.217Z,25.54
2023-09-12T15:05:21.557Z,25.16
2023-09-12T15:08:07.112Z,25.02
2023-09-12T15:10:52.731Z,25.19
2023-09-12T15:13:39.029Z,25.22
2023-09-12T15:16:28.627Z,25.40
2023-09-12T15:19:13.908Z,25.45
2023-09-12T15:21:59.414Z,25.12
2023-09-12T15:24:44.791Z,25.35
2023-09-12T15:27:30.327Z,25.23
2023-09-12T15:30:16.071Z,25.01
2023-09-12T15:33:01.900Z,24.97
2023-09-12T15:35:47.493Z,25.06
2023-09-12T15:38:32.865Z,25.01
2023-09-12T15:41:18.471Z,24.77
2023-09-12T15:44:14.543Z,24.86
2023-09-12T15:47:15.612Z,24.43
2023-09-12T15:50:06.485Z,24.43
2023-09-12T15:52:53.578Z,24.43
2023-09-12T15:55:39.028Z,24.39
2023-09-12T15:58:24.440Z,24.36
2023-09-12T16:01:10.109Z,24.41
2023-09-12T16:03:55.976Z,24.27
2023-09-12T16:06:42.136Z,24.12
2023-09-12T16:09:27.359Z,24.23
2023-09-12T16:12:12.975Z,24.39
2023-09-12T16:14:58.239Z,24.27
2023-09-12T16:17:43.957Z,24.19
2023-09-12T16:20:29.340Z,24.00
2023-09-12T16:23:14.648Z,23.96
2023-09-12T16:26:01.181Z,24.05
2023-09-12T16:28:46.641Z,24.18
2023-09-12T16:31:32.235Z,23.66
2023-09-12T16:34:17.582Z,23.77
2023-09-12T16:37:03.114Z,23.74
2023-09-12T16:39:48.402Z,23.55
2023-09-12T16:42:34.947Z,23.52
2023-09-12T16:45:20.185Z,23.42
2023-09-12T16:48:05.863Z,23.66
2023-09-12T16:50:51.245Z,23.61
2023-09-12T16:53:36.846Z,23.68
2023-09-12T16:56:22.604Z,23.83
2023-09-12T16:59:07.945Z,24.05
2023-09-12T17:01:53.603Z,24.33
2023-09-12T17:04:43.651Z,24.50
2023-09-12T17:07:28.948Z,24.73
2023-09-12T17:10:14.504Z,25.00
2023-09-12T17:13:00.086Z,25.26
2023-09-12T17:15:45.964Z,25.53
2023-09-12T17:18:32.362Z,25.74
2023-09-12T17:21:18.247Z,25.76
2023-09-12T17:24:04.401Z,25.62
2023-09-12T17:26:50.183Z,25.65
2023-09-12T17:29:35.894Z,25.64
2023-09-12T17:32:21.466Z,25.49
2023-09-12T17:35:07.674Z,25.11
2023-09-12T17:37:52.987Z,24.70
2023-09-12T17:40:38.889Z,24.67
2023-09-12T17:43:24.409Z,24.51
2023-09-12T17:46:11.785Z,24.31
2023-09-12T17:48:57.719Z,24.25
2023-09-12T17:51:43.085Z,24.25
2023-09-12T17:54:28.684Z,24.21
2023-09-12T17:57:14.069Z,24.19
2023-09-12T17:59:59.420Z,24.05
2023-09-12T18:02:45.061Z,23.94
2023-09-12T18:05:30.488Z,23.91
2023-09-12T18:08:15.991Z,23.96
2023-09-12T18:11:02.466Z,24.01
2023-09-12T18:13:49.251Z,23.87
2023-09-12T18:16:34.824Z,23.52
2023-09-12T18:19:21.752Z,23.14
2023-09-12T18:22:08.232Z,23.18
2023-09-12T18:24:53.639Z,23.36
2023-09-12T18:27:39.186Z,22.97
2023-09-12T18:30:24.707Z,22.18
2023-09-12T18:33:10.238Z,22.28
2023-09-12T18:35:55.808Z,22.02
2023-09-12T18:38:46.810Z,21.93
2023-09-12T18:41:32.385Z,21.44
2023-09-12T18:44:18.048Z,21.42
2023-09-12T18:47:03.903Z,21.47
2023-09-12T18:49:49.771Z,21.53
2023-09-12T18:52:52.141Z,21.68
2023-09-12T18:55:40.428Z,21.72
2023-09-12T18:58:25.794Z,21.80
2023-09-12T19:01:12.487Z,21.77
2023-09-12T19:04:32.493Z,21.66
2023-09-12T19:07:20.225Z,21.49
2023-09-12T19:10:08.863Z,21.65
2023-09-12T19:12:56.675Z,21.51
2023-09-12T19:15:42.536Z,21.44
2023-09-12T19:18:28.058Z,21.36
2023-09-12T19:21:13.291Z,21.23
2023-09-12T19:23:58.463Z,21.11
2023-09-12T19:26:44.009Z,21.10
2023-09-12T19:29:29.640Z,21.21
2023-09-12T19:32:15.028Z,21.27
2023-09-12T19:35:01.106Z,21.51
2023-09-12T19:37:46.204Z,21.59
2023-09-12T19:40:31.750Z,21.61
2023-09-12T19:43:17.307Z,21.43
2023-09-12T19:46:04.334Z,21.16
2023-09-12T19:48:50.062Z,21.15
2023-09-12T19:51:35.489Z,21.23
2023-09-12T19:54:20.965Z,21.23
2023-09-12T19:57:06.924Z,20.83
2023-09-12T19:59:52.389Z,20.90
2023-09-12T20:02:37.839Z,20.90
2023-09-12T20:05:23.183Z,20.95
2023-09-12T20:08:09.355Z,20.95
2023-09-12T20:10:54.756Z,20.73
2023-09-12T20:13:40.347Z,20.76
2023-09-12T20:16:26.045Z,20.71
2023-09-12T20:19:12.661Z,20.61
2023-09-12T20:21:57.999Z,20.34
2023-09-12T20:24:43.494Z,20.58
2023-09-12T20:27:28.671Z,20.46
2023-09-12T20:30:15.573Z,20.41
2023-09-12T20:33:02.460Z,20.27
2023-09-12T20:35:47.920Z,20.31
2023-09-12T20:38:33.499Z,20.31
2023-09-12T20:41:18.857Z,20.26
2023-09-12T20:44:04.736Z,20.14
2023-09-12T20:46:50.565Z,19.86
2023-09-12T20:49:35.590Z,19.99
2023-09-12T20:52:21.126Z,20.10
2023-09-12T20:55:07.030Z,20.12
2023-09-12T20:57:52.266Z,20.13
2023-09-12T21:00:37.793Z,20.02
2023-09-12T21:03:23.547Z,19.94
2023-09-12T21:06:08.628Z,20.04
2023-09-12T21:08:54.919Z,19.96
2023-09-12T21:11:40.188Z,19.82
2023-09-12T21:14:26.117Z,19.82
2023-09-12T21:17:11.576Z,19.47
2023-09-12T21:19:56.958Z,18.99
2023-09-12T21:22:42.109Z,18.69
2023-09-12T21:25:27.689Z,18.84
2023-09-12T21:28:15.178Z,18.85
2023-09-12T21:31:01.820Z,18.92
2023-09-12T21:33:47.353Z,19.02
2023-09-12T21:36:33.112Z,19.10
2023-09-12T21:39:18.337Z,18.96
2023-09-12T21:42:04.243Z,18.82
2023-09-12T21:44:49.405Z,18.70
2023-09-12T21:47:38.323Z,18.80
2023-09-12T21:50:23.667Z,18.91
2023-09-12T21:53:11.354Z,18.91
2023-09-12T21:55:56.618Z,18.99
2023-09-12T21:58:42.368Z,18.37
2023-09-12T22:01:27.883Z,17.53
2023-09-12T22:04:13.397Z,16.41
2023-09-12T22:06:58.828Z,15.79
2023-09-12T22:09:44.130Z,14.91
2023-09-12T22:12:29.240Z,14.80
2023-09-12T22:15:15.304Z,14.78
2023-09-12T22:18:03.191Z,14.94
2023-09-12T22:20:48.489Z,15.11
2023-09-12T22:23:34.072Z,15.56
2023-09-12T22:26:19.397Z,15.92
2023-09-12T22:29:04.876Z,15.97
2023-09-12T22:31:50.189Z,15.92
2023-09-12T22:34:35.402Z,15.42
2023-09-12T22:37:20.863Z,15.11
2023-09-12T22:40:07.514Z,15.33
2023-09-12T22:42:53.062Z,15.42
2023-09-12T22:45:38.269Z,15.33
2023-09-12T22:48:27.154Z,15.47
2023-09-12T22:51:12.499Z,15.72
2023-09-12T22:53:57.686Z,15.93
2023-09-12T22:56:43.187Z,16.17
2023-09-12T22:59:29.175Z,16.40
2023-09-12T23:02:14.594Z,16.45
2023-09-12T23:04:59.670Z,16.32
2023-09-12T23:07:44.764Z,16.37
2023-09-12T23:10:30.661Z,16.39
2023-09-12T23:13:15.870Z,16.50
2023-09-12T23:16:01.364Z,16.58
2023-09-12T23:18:47.049Z,16.56
2023-09-12T23:21:32.335Z,16.68
2023-09-12T23:24:17.622Z,16.78
2023-09-12T23:27:03.277Z,16.66
2023-09-12T23:29:49.929Z,16.68
2023-09-12T23:32:35.572Z,16.73
2023-09-12T23:35:20.886Z,16.35
2023-09-12T23:38:06.407Z,16.29
2023-09-12T23:40:51.862Z,16.20
2023-09-12T23:43:37.566Z,16.24
2023-09-12T23:46:22.817Z,16.00
2023-09-12T23:49:08.253Z,15.71
2023-09-12T23:51:53.625Z,15.04
2023-09-12T23:54:39.257Z,14.68
2023-09-12T23:57:24.591Z,15.20
